Time;durP1;ratioP1;P1;durP2;ratioP2;P2;SDS_P1;SDS_P2;PMS_P1;PMS_P2;Temp;Humidity;BMP_temperature;BMP_pressure;BME280_temperature;BME280_humidity;BME280_pressure;Samples;Min_cycle;Max_cycle;Signal;HPM_P1;HPM_P2
2023/04/30 00:01:49;;;;;;;7.45;4.38;;;;;;;;;;12984817;19;20359;-66
2023/04/30 00:06:07;;;;;;;5.78;3.90;;;;;;;;;;12984529;19;20450;-66
2023/04/30 00:10:25;;;;;;;6.05;4.55;;;;;;;;;;12985035;19;20014;-66
2023/04/30 00:14:42;;;;;;;5.15;3.65;;;;;;;;;;12985068;19;20014;-66
2023/04/30 00:19:00;;;;;;;6.03;3.93;;;;;;;;;;12982624;19;20994;-66
2023/04/30 00:23:18;;;;;;;5.18;3.97;;;;;;;;;;12984341;19;20255;-65
2023/04/30 00:27:35;;;;;;;4.97;3.83;;;;;;;;;;12984875;19;20019;-66
2023/04/30 00:31:56;;;;;;;5.00;3.40;;;;;;;;;;12984155;19;20018;-66
2023/04/30 00:36:14;;;;;;;5.95;3.65;;;;;;;;;;12981025;19;20018;-66
2023/04/30 00:40:34;;;;;;;3.40;2.78;;;;;;;;;;12982131;19;20401;-66
2023/04/30 00:44:52;;;;;;;4.07;2.47;;;;;;;;;;12983689;19;20026;-66
2023/04/30 00:49:10;;;;;;;3.10;2.50;;;;;;;;;;12982910;19;20043;-65
2023/04/30 00:53:28;;;;;;;3.85;2.42;;;;;;;;;;12984366;19;20759;-65
2023/04/30 00:57:45;;;;;;;3.47;2.30;;;;;;;;;;12982980;19;20018;-65
2023/04/30 01:02:03;;;;;;;4.07;2.83;;;;;;;;;;12978547;19;20015;-66
2023/04/30 01:06:21;;;;;;;4.10;2.53;;;;;;;;;;12981483;19;21711;-65
2023/04/30 01:10:52;;;;;;;5.53;2.70;;;;;;;;;;12979781;19;20021;-65
2023/04/30 01:15:16;;;;;;;5.45;3.60;;;;;;;;;;12981980;19;20018;-66
2023/04/30 01:19:43;;;;;;;6.30;4.45;;;;;;;;;;12979807;19;20022;-65
2023/04/30 01:24:31;;;;;;;6.32;3.58;;;;;;;;;;12980558;19;20034;-66
2023/04/30 01:28:52;;;;;;;6.82;4.90;;;;;;;;;;12980330;19;20015;-65
2023/04/30 01:33:11;;;;;;;9.65;5.55;;;;;;;;;;12981113;19;20046;-66
2023/04/30 01:38:01;;;;;;;9.68;4.95;;;;;;;;;;12981793;19;20026;-65
2023/04/30 01:42:21;;;;;;;7.20;4.97;;;;;;;;;;12978529;19;20859;-65
2023/04/30 01:46:41;;;;;;;5.72;4.03;;;;;;;;;;12985461;19;20010;-65
2023/04/30 01:51:13;;;;;;;6.50;3.80;;;;;;;;;;12991004;19;20018;-65
2023/04/30 01:55:46;;;;;;;4.88;3.30;;;;;;;;;;12991354;19;20019;-65
2023/04/30 02:00:09;;;;;;;19.65;4.22;;;;;;;;;;12989416;19;20010;-66
2023/04/30 02:04:27;;;;;;;4.40;3.30;;;;;;;;;;12992384;19;20006;-65
2023/04/30 02:08:45;;;;;;;6.78;2.90;;;;;;;;;;12992481;19;20014;-66
2023/04/30 02:13:02;;;;;;;6.10;3.60;;;;;;;;;;12991464;19;20021;-66
2023/04/30 02:17:20;;;;;;;4.28;2.75;;;;;;;;;;12992489;19;20014;-66
2023/04/30 02:21:38;;;;;;;3.50;2.30;;;;;;;;;;12990873;19;20027;-66
2023/04/30 02:25:55;;;;;;;4.13;2.90;;;;;;;;;;12988264;19;20022;-64
2023/04/30 02:30:13;;;;;;;4.60;3.25;;;;;;;;;;12990774;19;20483;-65
2023/04/30 02:34:30;;;;;;;6.25;3.30;;;;;;;;;;12989372;19;20039;-65
2023/04/30 02:38:48;;;;;;;4.18;3.00;;;;;;;;;;12989733;19;20018;-65
2023/04/30 02:43:06;;;;;;;4.45;2.75;;;;;;;;;;12989181;19;20509;-65
2023/04/30 02:47:23;;;;;;;5.65;3.05;;;;;;;;;;12990398;19;20039;-65
2023/04/30 02:51:41;;;;;;;6.47;3.28;;;;;;;;;;12989769;19;20473;-65
2023/04/30 02:55:59;;;;;;;5.80;3.97;;;;;;;;;;12990091;19;20379;-65
2023/04/30 03:00:17;;;;;;;5.85;3.58;;;;;;;;;;12987606;19;20019;-65
2023/04/30 03:04:34;;;;;;;8.10;4.68;;;;;;;;;;12989323;19;20034;-65
2023/04/30 03:08:52;;;;;;;4.97;3.63;;;;;;;;;;12988329;19;20015;-65
2023/04/30 03:13:09;;;;;;;6.50;4.32;;;;;;;;;;12987536;19;20014;-65
2023/04/30 03:17:27;;;;;;;7.28;4.97;;;;;;;;;;12988490;19;20014;-65
2023/04/30 03:21:45;;;;;;;8.25;3.88;;;;;;;;;;12987775;19;20023;-66
2023/04/30 03:26:03;;;;;;;4.78;3.10;;;;;;;;;;12986257;19;20834;-66
2023/04/30 03:30:21;;;;;;;4.60;3.60;;;;;;;;;;12986544;19;20006;-65
2023/04/30 03:34:38;;;;;;;7.15;5.00;;;;;;;;;;12988026;19;20014;-65
2023/04/30 03:38:56;;;;;;;7.57;4.70;;;;;;;;;;12987510;19;20466;-65
2023/04/30 03:43:14;;;;;;;7.43;5.25;;;;;;;;;;12986659;19;20103;-65
2023/04/30 03:47:32;;;;;;;3.25;2.70;;;;;;;;;;12987294;19;20018;-65
2023/04/30 03:51:50;;;;;;;;;;;;;;;;;;12986844;19;20010;-65
2023/04/30 03:56:08;;;;;;;3.83;2.35;;;;;;;;;;12984721;19;19927;-65
2023/04/30 04:00:26;;;;;;;2.47;2.08;;;;;;;;;;12984216;19;20027;-66
2023/04/30 04:04:43;;;;;;;2.78;2.05;;;;;;;;;;12985889;19;20014;-66
2023/04/30 04:09:01;;;;;;;3.70;2.88;;;;;;;;;;12981413;19;20028;-69
2023/04/30 04:13:19;;;;;;;6.88;3.70;;;;;;;;;;12984673;19;20461;-66
2023/04/30 04:17:37;;;;;;;6.15;4.22;;;;;;;;;;12985015;19;20049;-66
2023/04/30 04:21:56;;;;;;;7.90;4.00;;;;;;;;;;12983060;19;20038;-66
2023/04/30 04:26:15;;;;;;;8.02;4.47;;;;;;;;;;12982666;19;20018;-66
2023/04/30 04:30:33;;;;;;;10.27;5.55;;;;;;;;;;12983579;19;20414;-66
2023/04/30 04:34:53;;;;;;;9.73;5.40;;;;;;;;;;12983114;19;20022;-66
2023/04/30 04:39:10;;;;;;;6.18;4.85;;;;;;;;;;12981799;19;20378;-66
2023/04/30 04:43:28;;;;;;;7.68;4.13;;;;;;;;;;12983600;19;20010;-66
2023/04/30 04:47:47;;;;;;;9.45;6.05;;;;;;;;;;12983432;19;20010;-66
2023/04/30 04:52:05;;;;;;;10.57;5.13;;;;;;;;;;12982434;19;20007;-66
2023/04/30 04:56:23;;;;;;;7.18;5.03;;;;;;;;;;12983582;19;20019;-66
2023/04/30 05:00:40;;;;;;;6.53;4.55;;;;;;;;;;12980894;19;20011;-66
2023/04/30 05:04:58;;;;;;;8.27;5.13;;;;;;;;;;12982305;19;20014;-66
2023/04/30 05:09:16;;;;;;;10.25;5.85;;;;;;;;;;12981685;19;20021;-66
2023/04/30 05:13:34;;;;;;;16.08;6.90;;;;;;;;;;12982023;19;20022;-66
2023/04/30 05:17:53;;;;;;;12.95;6.95;;;;;;;;;;12981534;19;20034;-66
2023/04/30 05:22:11;;;;;;;;;;;;;;;;;;12987525;19;20028;-66
2023/04/30 05:26:28;;;;;;;12.37;6.83;;;;;;;;;;12995418;19;19945;-65
2023/04/30 05:30:46;;;;;;;9.68;6.10;;;;;;;;;;12995014;19;20364;-65
2023/04/30 05:35:04;;;;;;;12.25;6.75;;;;;;;;;;12993126;19;20007;-65
2023/04/30 05:39:22;;;;;;;13.40;6.63;;;;;;;;;;12993064;19;20010;-65
2023/04/30 05:43:39;;;;;;;11.57;6.82;;;;;;;;;;12993021;19;20015;-65
2023/04/30 05:47:57;;;;;;;9.05;5.75;;;;;;;;;;12992821;19;20003;-65
2023/04/30 05:52:16;;;;;;;14.70;6.07;;;;;;;;;;12992576;19;20014;-65
2023/04/30 05:56:34;;;;;;;15.27;7.63;;;;;;;;;;12992276;19;20010;-65
2023/04/30 06:00:51;;;;;;;10.05;7.07;;;;;;;;;;12991512;19;20469;-65
2023/04/30 06:05:10;;;;;;;8.15;5.25;;;;;;;;;;12992183;19;20014;-67
2023/04/30 06:09:30;;;;;;;9.20;6.05;;;;;;;;;;12992723;19;20011;-66
2023/04/30 06:13:48;;;;;;;9.30;5.68;;;;;;;;;;12991457;19;20019;-66
2023/04/30 06:18:06;;;;;;;11.02;5.60;;;;;;;;;;12990065;19;20046;-66
2023/04/30 06:22:24;;;;;;;;;;;;;;;;;;12990686;19;20014;-66
2023/04/30 06:26:42;;;;;;;9.50;5.97;;;;;;;;;;12990191;19;19922;-66
2023/04/30 06:31:00;;;;;;;;;;;;;;;;;;12990808;19;20014;-66
2023/04/30 06:35:17;;;;;;;9.60;5.67;;;;;;;;;;12987182;19;20243;-66
2023/04/30 06:39:35;;;;;;;13.40;4.75;;;;;;;;;;12989017;19;20023;-66
2023/04/30 06:43:52;;;;;;;6.93;4.35;;;;;;;;;;12988131;19;20359;-66
2023/04/30 06:48:10;;;;;;;6.65;4.95;;;;;;;;;;12988097;19;20469;-66
2023/04/30 06:52:29;;;;;;;7.22;4.20;;;;;;;;;;12986447;19;20010;-67
2023/04/30 06:56:47;;;;;;;5.93;3.92;;;;;;;;;;12973560;19;20018;-67
2023/04/30 07:01:05;;;;;;;5.65;3.85;;;;;;;;;;12972279;19;20463;-69
2023/04/30 07:05:22;;;;;;;6.20;3.75;;;;;;;;;;12983803;19;20113;-69
2023/04/30 07:09:40;;;;;;;6.82;4.15;;;;;;;;;;12988950;19;20022;-69
2023/04/30 07:13:58;;;;;;;8.13;4.47;;;;;;;;;;12987028;19;20019;-69
2023/04/30 07:18:16;;;;;;;4.55;3.33;;;;;;;;;;12981740;19;20371;-70
2023/04/30 07:22:33;;;;;;;4.55;3.30;;;;;;;;;;12982088;19;20006;-69
2023/04/30 07:26:51;;;;;;;3.97;2.50;;;;;;;;;;12974602;19;20121;-69
2023/04/30 07:31:09;;;;;;;8.38;3.05;;;;;;;;;;12981787;19;20031;-70
2023/04/30 07:35:27;;;;;;;71.05;38.58;;;;;;;;;;12980267;19;20014;-70
2023/04/30 07:39:44;;;;;;;3.83;2.85;;;;;;;;;;12980260;19;20023;-70
2023/04/30 07:44:02;;;;;;;6.85;3.47;;;;;;;;;;12979316;19;20130;-69
2023/04/30 07:48:20;;;;;;;5.20;3.53;;;;;;;;;;12979832;19;20414;-69
2023/04/30 07:52:38;;;;;;;7.35;3.78;;;;;;;;;;12967288;19;20126;-69
2023/04/30 07:56:59;;;;;;;48.63;43.60;;;;;;;;;;12978943;19;20022;-69
2023/04/30 08:01:17;;;;;;;7.05;4.53;;;;;;;;;;12979759;19;20014;-68
2023/04/30 08:05:35;;;;;;;26.80;22.40;;;;;;;;;;12978917;19;20023;-69
2023/04/30 08:09:52;;;;;;;;;;;;;;;;;;12980369;19;20014;-69
2023/04/30 08:14:10;;;;;;;26.20;21.05;;;;;;;;;;12977844;19;20029;-68
2023/04/30 08:18:31;;;;;;;177.02;90.07;;;;;;;;;;12978419;19;20787;-69
2023/04/30 08:22:49;;;;;;;634.28;325.85;;;;;;;;;;12978548;19;20803;-68
2023/04/30 08:27:06;;;;;;;5.78;3.15;;;;;;;;;;12976797;19;20010;-68
2023/04/30 08:31:24;;;;;;;5.90;4.10;;;;;;;;;;12977244;19;20850;-68
2023/04/30 08:35:42;;;;;;;91.07;81.80;;;;;;;;;;12976824;19;20061;-69
2023/04/30 08:40:00;;;;;;;9.70;3.65;;;;;;;;;;12976631;19;20422;-69
2023/04/30 08:44:20;;;;;;;13.63;6.75;;;;;;;;;;12977289;19;20479;-68
2023/04/30 08:48:39;;;;;;;262.05;181.55;;;;;;;;;;12977861;19;20014;-69
2023/04/30 08:52:58;;;;;;;38.17;34.38;;;;;;;;;;12974619;19;20615;-68
2023/04/30 08:57:17;;;;;;;51.78;46.55;;;;;;;;;;12978751;19;20473;-68
2023/04/30 09:01:35;;;;;;;7.22;3.72;;;;;;;;;;12975539;19;20014;-67
2023/04/30 09:05:54;;;;;;;;;;;;;;;;;;12976903;19;20123;-68
2023/04/30 09:10:20;;;;;;;5.53;3.10;;;;;;;;;;12973243;19;19922;-68
2023/04/30 09:14:39;;;;;;;16.58;10.68;;;;;;;;;;12975554;19;20015;-68
2023/04/30 09:18:58;;;;;;;7.95;2.63;;;;;;;;;;12975689;19;20019;-69
2023/04/30 09:23:16;;;;;;;9.93;5.07;;;;;;;;;;12974162;19;20541;-68
2023/04/30 09:27:34;;;;;;;5.95;2.45;;;;;;;;;;12975136;19;20102;-69
2023/04/30 09:32:06;;;;;;;7.35;5.50;;;;;;;;;;12974876;19;20006;-70
2023/04/30 09:36:23;;;;;;;6.00;2.13;;;;;;;;;;12973999;19;20036;-68
2023/04/30 09:40:41;;;;;;;5.65;2.20;;;;;;;;;;12972423;19;20662;-68
2023/04/30 09:44:59;;;;;;;5.82;2.78;;;;;;;;;;12971528;19;20083;-68
2023/04/30 09:49:18;;;;;;;3.03;2.05;;;;;;;;;;12974407;19;20848;-69
2023/04/30 09:53:41;;;;;;;6.07;2.80;;;;;;;;;;12973523;19;20018;-68
2023/04/30 09:58:06;;;;;;;4.00;2.10;;;;;;;;;;12973428;19;20023;-69
2023/04/30 10:02:24;;;;;;;5.45;2.47;;;;;;;;;;12970954;19;20042;-69
2023/04/30 10:06:43;;;;;;;7.03;2.67;;;;;;;;;;12975194;19;20006;-69
2023/04/30 10:11:06;;;;;;;3.80;2.35;;;;;;;;;;12986601;19;20031;-69
2023/04/30 10:15:54;;;;;;;4.50;1.65;;;;;;;;;;12986165;19;20046;-69
2023/04/30 10:20:14;;;;;;;4.53;1.42;;;;;;;;;;12982567;19;20497;-69
2023/04/30 10:24:33;;;;;;;2.13;1.58;;;;;;;;;;12984203;19;20022;-70
2023/04/30 10:28:53;;;;;;;5.30;1.75;;;;;;;;;;12982974;19;20014;-69
2023/04/30 10:33:20;;;;;;;2.55;2.00;;;;;;;;;;12984290;19;20023;-69
2023/04/30 10:37:52;;;;;;;2.53;1.63;;;;;;;;;;12982841;19;20048;-69
2023/04/30 10:42:10;;;;;;;4.25;1.80;;;;;;;;;;12982259;19;20026;-70
2023/04/30 10:46:28;;;;;;;;;;;;;;;;;;12986245;19;20023;-67
2023/04/30 10:50:46;;;;;;;3.78;2.45;;;;;;;;;;12988931;19;19952;-68
2023/04/30 10:55:07;;;;;;;3.70;2.35;;;;;;;;;;12988275;19;20011;-68
2023/04/30 10:59:27;;;;;;;4.50;1.65;;;;;;;;;;12988772;19;20028;-68
2023/04/30 11:04:09;;;;;;;3.30;1.60;;;;;;;;;;12988525;19;20017;-68
2023/04/30 11:08:41;;;;;;;8.45;2.53;;;;;;;;;;12985783;19;20021;-68
2023/04/30 11:13:04;;;;;;;5.32;1.73;;;;;;;;;;12986561;19;20010;-68
2023/04/30 11:17:23;;;;;;;5.88;2.33;;;;;;;;;;12985617;19;20043;-68
2023/04/30 11:22:04;;;;;;;1.75;1.20;;;;;;;;;;12984695;19;20030;-68
2023/04/30 11:26:22;;;;;;;5.18;1.30;;;;;;;;;;12985278;19;20485;-68
2023/04/30 11:30:49;;;;;;;3.85;1.98;;;;;;;;;;12985450;19;20019;-68
2023/04/30 11:35:07;;;;;;;4.95;1.40;;;;;;;;;;12985372;19;20014;-68
2023/04/30 11:39:28;;;;;;;2.92;1.52;;;;;;;;;;12987861;19;20027;-68
2023/04/30 11:43:45;;;;;;;6.65;1.80;;;;;;;;;;12986659;19;20356;-68
2023/04/30 11:48:03;;;;;;;5.55;2.25;;;;;;;;;;12985550;19;20048;-68
2023/04/30 11:52:24;;;;;;;2.65;1.20;;;;;;;;;;12986270;19;20040;-68
2023/04/30 11:56:49;;;;;;;4.82;1.58;;;;;;;;;;12985404;19;20951;-68
2023/04/30 12:01:08;;;;;;;7.75;1.67;;;;;;;;;;12983234;19;20014;-68
2023/04/30 12:05:26;;;;;;;2.92;1.52;;;;;;;;;;12984232;19;20342;-68
2023/04/30 12:09:53;;;;;;;3.55;1.42;;;;;;;;;;12984727;19;20119;-68
2023/04/30 12:14:13;;;;;;;4.38;1.30;;;;;;;;;;12984004;19;20018;-68
2023/04/30 12:18:32;;;;;;;2.72;1.23;;;;;;;;;;12983747;19;20035;-68
2023/04/30 12:22:50;;;;;;;4.55;1.23;;;;;;;;;;12984011;19;20023;-68
2023/04/30 12:27:08;;;;;;;2.55;1.00;;;;;;;;;;12983889;19;20018;-69
2023/04/30 12:31:26;;;;;;;2.60;1.25;;;;;;;;;;12982063;19;20347;-68
2023/04/30 12:35:44;;;;;;;2.83;1.30;;;;;;;;;;12982209;19;20372;-68
2023/04/30 12:40:03;;;;;;;1.98;1.10;;;;;;;;;;12982821;19;20014;-68
2023/04/30 12:44:26;;;;;;;4.40;1.48;;;;;;;;;;12982942;19;20478;-68
2023/04/30 12:48:44;;;;;;;4.00;1.30;;;;;;;;;;12981869;19;20366;-68
2023/04/30 12:53:03;;;;;;;5.93;1.80;;;;;;;;;;12982037;19;20011;-69
2023/04/30 12:57:21;;;;;;;2.40;0.98;;;;;;;;;;12982070;19;20033;-68
2023/04/30 13:01:44;;;;;;;2.72;1.00;;;;;;;;;;12980160;19;20036;-68
2023/04/30 13:06:03;;;;;;;3.45;1.35;;;;;;;;;;12981545;19;20015;-68
2023/04/30 13:10:21;;;;;;;2.45;1.00;;;;;;;;;;12982098;19;20014;-68
2023/04/30 13:14:39;;;;;;;3.67;1.77;;;;;;;;;;12980983;19;20007;-68
2023/04/30 13:18:57;;;;;;;3.17;1.52;;;;;;;;;;12981759;19;20014;-68
2023/04/30 13:23:15;;;;;;;5.63;1.90;;;;;;;;;;12980388;19;20519;-68
2023/04/30 13:27:33;;;;;;;4.25;1.35;;;;;;;;;;12980568;19;20022;-68
2023/04/30 13:31:51;;;;;;;4.63;1.52;;;;;;;;;;12980570;19;20018;-68
2023/04/30 13:36:09;;;;;;;3.05;1.30;;;;;;;;;;12979719;19;20007;-68
2023/04/30 13:40:26;;;;;;;5.78;1.80;;;;;;;;;;12977503;19;20010;-68
2023/04/30 13:44:46;;;;;;;3.95;1.17;;;;;;;;;;12991099;19;20006;-68
2023/04/30 13:49:04;;;;;;;2.53;1.17;;;;;;;;;;12989644;19;20018;-68
2023/04/30 13:53:22;;;;;;;1.88;1.02;;;;;;;;;;12992653;19;20021;-68
2023/04/30 13:57:39;;;;;;;4.00;1.25;;;;;;;;;;12992269;19;20608;-68
2023/04/30 14:01:57;;;;;;;3.28;1.42;;;;;;;;;;12991155;19;20019;-68
2023/04/30 14:06:15;;;;;;;3.30;0.93;;;;;;;;;;12991400;19;20369;-68
2023/04/30 14:10:33;;;;;;;4.18;1.55;;;;;;;;;;12990969;19;20010;-69
2023/04/30 14:14:51;;;;;;;2.13;1.17;;;;;;;;;;12992308;19;20007;-68
2023/04/30 14:19:09;;;;;;;5.18;1.35;;;;;;;;;;12990717;19;20264;-68
2023/04/30 14:23:27;;;;;;;1.80;0.85;;;;;;;;;;12969021;19;20010;-69
2023/04/30 14:27:46;;;;;;;4.15;1.02;;;;;;;;;;12969968;19;20503;-68
2023/04/30 14:32:05;;;;;;;5.43;1.30;;;;;;;;;;12983712;19;20569;-68
2023/04/30 14:36:23;;;;;;;1.70;0.93;;;;;;;;;;12990154;19;20006;-68
2023/04/30 14:40:43;;;;;;;2.88;1.20;;;;;;;;;;12987118;19;20010;-69
2023/04/30 14:45:00;;;;;;;4.30;0.98;;;;;;;;;;12989902;19;20495;-69
2023/04/30 14:49:18;;;;;;;1.50;1.00;;;;;;;;;;12989353;19;20010;-68
2023/04/30 14:53:36;;;;;;;2.97;1.30;;;;;;;;;;12987583;19;20021;-69
2023/04/30 14:57:54;;;;;;;2.53;1.00;;;;;;;;;;12989322;19;20019;-69
2023/04/30 15:02:12;;;;;;;4.90;2.00;;;;;;;;;;12987081;19;20376;-69
2023/04/30 15:06:30;;;;;;;5.10;1.85;;;;;;;;;;12988433;19;20018;-69
2023/04/30 15:10:48;;;;;;;8.13;2.42;;;;;;;;;;12987716;19;20010;-68
2023/04/30 15:15:07;;;;;;;5.28;1.73;;;;;;;;;;12988618;19;20014;-68
2023/04/30 15:19:25;;;;;;;2.92;1.23;;;;;;;;;;12987550;19;20015;-69
2023/04/30 15:23:43;;;;;;;;;;;;;;;;;;12988092;19;20478;-68
2023/04/30 15:28:01;;;;;;;2.83;1.20;;;;;;;;;;12987451;19;19923;-68
2023/04/30 15:32:19;;;;;;;2.55;1.05;;;;;;;;;;12985340;19;20011;-68
2023/04/30 15:36:37;;;;;;;3.85;1.00;;;;;;;;;;12986783;19;20011;-68
2023/04/30 15:40:56;;;;;;;5.50;1.33;;;;;;;;;;12985402;19;20363;-68
2023/04/30 15:45:14;;;;;;;4.18;1.05;;;;;;;;;;12985420;19;20014;-69
2023/04/30 15:49:31;;;;;;;;;;;;;;;;;;12986016;19;20590;-69
2023/04/30 15:53:49;;;;;;;5.65;1.45;;;;;;;;;;12985274;19;19923;-68
2023/04/30 15:58:07;;;;;;;2.25;1.20;;;;;;;;;;12984914;19;20458;-68
2023/04/30 16:02:24;;;;;;;;;;;;;;;;;;12985590;19;20424;-68
2023/04/30 16:06:42;;;;;;;3.28;1.35;;;;;;;;;;12983924;19;20018;-69
2023/04/30 16:11:00;;;;;;;;;;;;;;;;;;12986312;19;20269;-68
2023/04/30 16:15:18;;;;;;;3.45;1.17;;;;;;;;;;12983028;19;19918;-69
2023/04/30 16:19:35;;;;;;;4.07;1.15;;;;;;;;;;12984662;19;20014;-69
2023/04/30 16:23:53;;;;;;;1.63;0.80;;;;;;;;;;12983736;19;20035;-69
2023/04/30 16:28:11;;;;;;;2.67;1.70;;;;;;;;;;12982750;19;20022;-69
2023/04/30 16:32:28;;;;;;;2.95;1.40;;;;;;;;;;12982878;19;20025;-68
2023/04/30 16:36:46;;;;;;;7.18;1.50;;;;;;;;;;12979088;19;20033;-69
2023/04/30 16:41:04;;;;;;;6.18;3.72;;;;;;;;;;12969981;19;20040;-68
2023/04/30 16:45:22;;;;;;;4.32;1.58;;;;;;;;;;12976593;19;20474;-69
2023/04/30 16:49:39;;;;;;;7.15;1.88;;;;;;;;;;12982559;19;20788;-69
2023/04/30 16:53:57;;;;;;;3.97;2.28;;;;;;;;;;12983256;19;20027;-68
2023/04/30 16:58:15;;;;;;;3.40;1.20;;;;;;;;;;12982624;19;20477;-70
2023/04/30 17:02:33;;;;;;;4.10;2.40;;;;;;;;;;12977906;19;20078;-69
2023/04/30 17:06:51;;;;;;;2.92;0.93;;;;;;;;;;12970740;19;20011;-69
2023/04/30 17:11:08;;;;;;;;;;;;;;;;;;12971616;19;20030;-68
2023/04/30 17:15:26;;;;;;;2.65;1.00;;;;;;;;;;12966859;19;20030;-68
2023/04/30 17:19:45;;;;;;;1.65;0.70;;;;;;;;;;12980036;19;20070;-68
2023/04/30 17:24:04;;;;;;;2.22;1.08;;;;;;;;;;12979885;19;20102;-68
2023/04/30 17:28:22;;;;;;;1.20;0.85;;;;;;;;;;12980452;19;20040;-70
2023/04/30 17:32:40;;;;;;;;;;;;;;;;;;12980916;19;20036;-69
2023/04/30 17:36:58;;;;;;;;;;;;;;;;;;12982797;19;19915;-68
2023/04/30 17:41:17;;;;;;;4.38;1.27;;;;;;;;;;12986564;19;19922;-68
2023/04/30 17:45:35;;;;;;;4.70;1.02;;;;;;;;;;12986136;19;20102;-69
2023/04/30 17:49:52;;;;;;;2.75;1.30;;;;;;;;;;12984286;19;20020;-68
2023/04/30 17:54:10;;;;;;;2.00;1.08;;;;;;;;;;12985394;19;20097;-68
2023/04/30 17:58:29;;;;;;;2.78;1.05;;;;;;;;;;12985928;19;20597;-68
2023/04/30 18:02:47;;;;;;;2.35;1.00;;;;;;;;;;12986056;19;20031;-68
2023/04/30 18:07:06;;;;;;;8.43;3.80;;;;;;;;;;12985076;19;20080;-69
2023/04/30 18:11:24;;;;;;;14.45;6.53;;;;;;;;;;12985762;19;20118;-68
2023/04/30 18:15:42;;;;;;;7.10;4.47;;;;;;;;;;12986135;19;20014;-68
2023/04/30 18:20:00;;;;;;;6.95;4.05;;;;;;;;;;12985876;19;20781;-68
2023/04/30 18:24:19;;;;;;;18.33;7.30;;;;;;;;;;12984258;19;20026;-68
2023/04/30 18:28:36;;;;;;;10.20;4.80;;;;;;;;;;12982287;19;20035;-68
2023/04/30 18:32:54;;;;;;;12.23;7.05;;;;;;;;;;12984601;19;20031;-69
2023/04/30 18:37:12;;;;;;;12.75;7.03;;;;;;;;;;12983341;19;20092;-69
2023/04/30 18:41:30;;;;;;;13.20;5.68;;;;;;;;;;12983456;19;20553;-67
2023/04/30 18:45:48;;;;;;;;;;;;;;;;;;12984682;19;20478;-68
2023/04/30 18:50:09;;;;;;;14.43;4.95;;;;;;;;;;12983245;19;20779;-68
2023/04/30 18:54:27;;;;;;;12.75;5.50;;;;;;;;;;12984343;19;20007;-67
2023/04/30 18:58:45;;;;;;;9.77;4.68;;;;;;;;;;12983926;19;20427;-68
2023/04/30 19:03:03;;;;;;;11.85;4.63;;;;;;;;;;12981874;19;20908;-67
2023/04/30 19:07:21;;;;;;;10.20;4.65;;;;;;;;;;12983208;19;20042;-68
2023/04/30 19:11:39;;;;;;;6.22;3.78;;;;;;;;;;12983974;19;20018;-68
2023/04/30 19:15:56;;;;;;;18.10;6.97;;;;;;;;;;12982654;19;20445;-69
2023/04/30 19:20:16;;;;;;;12.10;4.63;;;;;;;;;;12981540;19;20015;-68
2023/04/30 19:24:33;;;;;;;12.02;4.97;;;;;;;;;;12982206;19;20031;-68
2023/04/30 19:28:51;;;;;;;7.78;3.80;;;;;;;;;;12981537;19;20103;-68
2023/04/30 19:33:10;;;;;;;9.52;2.90;;;;;;;;;;12980817;19;20018;-68
2023/04/30 19:37:29;;;;;;;8.93;4.13;;;;;;;;;;12980683;19;20418;-67
2023/04/30 19:41:48;;;;;;;6.82;3.50;;;;;;;;;;12979397;19;20035;-68
2023/04/30 19:46:06;;;;;;;5.65;2.65;;;;;;;;;;12981178;19;20010;-68
2023/04/30 19:50:24;;;;;;;3.38;2.15;;;;;;;;;;12981006;19;20032;-67
2023/04/30 19:54:47;;;;;;;5.20;2.70;;;;;;;;;;12980937;19;20874;-68
2023/04/30 19:59:04;;;;;;;6.40;3.28;;;;;;;;;;12980120;19;20019;-68
2023/04/30 20:03:23;;;;;;;6.95;3.22;;;;;;;;;;12977407;19;20119;-67
2023/04/30 20:07:41;;;;;;;8.23;3.85;;;;;;;;;;12978935;19;20014;-67
2023/04/30 20:12:01;;;;;;;6.43;3.58;;;;;;;;;;12979523;19;20117;-67
2023/04/30 20:16:19;;;;;;;6.80;3.58;;;;;;;;;;12979321;19;20022;-68
2023/04/30 20:20:37;;;;;;;7.10;3.45;;;;;;;;;;12977882;19;20019;-69
2023/04/30 20:24:55;;;;;;;;;;;;;;;;;;12979037;19;20046;-67
2023/04/30 20:29:13;;;;;;;6.63;3.15;;;;;;;;;;12978514;19;19938;-67
2023/04/30 20:33:31;;;;;;;6.47;2.60;;;;;;;;;;12979215;19;20021;-67
2023/04/30 20:37:53;;;;;;;;;;;;;;;;;;12979247;19;20051;-67
2023/04/30 20:42:15;;;;;;;12.88;5.40;;;;;;;;;;12954097;19;19954;-68
2023/04/30 20:46:33;;;;;;;11.18;5.50;;;;;;;;;;12975987;19;20097;-67
2023/04/30 20:50:50;;;;;;;;;;;;;;;;;;12975569;19;20010;-67
2023/04/30 20:55:09;;;;;;;8.15;2.35;;;;;;;;;;12975990;19;19919;-67
2023/04/30 20:59:27;;;;;;;9.90;4.07;;;;;;;;;;12977333;19;20364;-67
2023/04/30 21:03:44;;;;;;;7.18;3.50;;;;;;;;;;12976148;19;20883;-67
2023/04/30 21:08:02;;;;;;;8.43;3.35;;;;;;;;;;12975363;19;20044;-67
2023/04/30 21:12:20;;;;;;;6.15;2.58;;;;;;;;;;12976263;19;20048;-67
2023/04/30 21:16:39;;;;;;;10.20;3.85;;;;;;;;;;12976672;19;20043;-67
2023/04/30 21:21:03;;;;;;;19.33;5.82;;;;;;;;;;12976009;19;20079;-67
2023/04/30 21:25:22;;;;;;;15.82;5.75;;;;;;;;;;12975711;19;20047;-67
2023/04/30 21:29:42;;;;;;;8.13;3.30;;;;;;;;;;12976101;19;20829;-67
2023/04/30 21:34:00;;;;;;;11.93;4.40;;;;;;;;;;12976471;19;20055;-67
2023/04/30 21:38:18;;;;;;;10.82;3.90;;;;;;;;;;12974249;19;20117;-68
2023/04/30 21:42:36;;;;;;;9.82;3.38;;;;;;;;;;12974773;19;20036;-67
2023/04/30 21:46:54;;;;;;;9.23;2.88;;;;;;;;;;12975145;19;20043;-67
2023/04/30 21:51:13;;;;;;;6.88;2.85;;;;;;;;;;12973442;19;20018;-67
2023/04/30 21:55:31;;;;;;;5.88;2.63;;;;;;;;;;12972732;19;20034;-67
2023/04/30 21:59:49;;;;;;;6.90;2.83;;;;;;;;;;12973357;19;20364;-66
2023/04/30 22:04:07;;;;;;;7.10;3.30;;;;;;;;;;12977815;19;20612;-67
2023/04/30 22:08:25;;;;;;;;;;;;;;;;;;12986869;19;20133;-68
2023/04/30 22:12:43;;;;;;;6.30;3.00;;;;;;;;;;12986155;19;19945;-67
2023/04/30 22:17:04;;;;;;;5.75;3.25;;;;;;;;;;12985423;19;20027;-67
2023/04/30 22:21:21;;;;;;;7.35;3.38;;;;;;;;;;12985305;19;20030;-66
2023/04/30 22:25:39;;;;;;;9.45;4.20;;;;;;;;;;12985261;19;20061;-66
2023/04/30 22:29:57;;;;;;;13.13;5.40;;;;;;;;;;12984533;19;20017;-66
2023/04/30 22:34:18;;;;;;;12.55;5.65;;;;;;;;;;12984227;19;20076;-65
2023/04/30 22:38:35;;;;;;;8.30;3.50;;;;;;;;;;12983864;19;20370;-66
2023/04/30 22:42:53;;;;;;;8.70;2.47;;;;;;;;;;12983714;19;20026;-67
2023/04/30 22:47:11;;;;;;;8.30;3.05;;;;;;;;;;12984055;19;20007;-67
2023/04/30 22:51:30;;;;;;;5.60;2.80;;;;;;;;;;12984353;19;20462;-67
2023/04/30 22:55:49;;;;;;;5.95;3.08;;;;;;;;;;12981834;19;20035;-67
2023/04/30 23:00:08;;;;;;;4.45;2.40;;;;;;;;;;12982309;19;20477;-66
2023/04/30 23:04:27;;;;;;;7.82;2.88;;;;;;;;;;12981746;19;20511;-66
2023/04/30 23:08:45;;;;;;;8.13;3.72;;;;;;;;;;12981549;19;20689;-66
2023/04/30 23:13:03;;;;;;;8.52;3.38;;;;;;;;;;12953989;19;20023;-68
2023/04/30 23:17:25;;;;;;;8.13;3.78;;;;;;;;;;12980144;19;20050;-67
2023/04/30 23:21:43;;;;;;;9.65;3.40;;;;;;;;;;12959049;19;20034;-68
2023/04/30 23:26:02;;;;;;;6.47;3.38;;;;;;;;;;12980248;19;20344;-68
2023/04/30 23:30:22;;;;;;;4.13;2.25;;;;;;;;;;12981465;19;20022;-67
2023/04/30 23:34:40;;;;;;;7.05;3.25;;;;;;;;;;12981671;19;20028;-67
2023/04/30 23:38:58;;;;;;;13.73;4.80;;;;;;;;;;12981644;19;20002;-66
2023/04/30 23:43:15;;;;;;;15.02;5.22;;;;;;;;;;12978678;19;20036;-67
2023/04/30 23:47:35;;;;;;;7.07;3.22;;;;;;;;;;12980226;19;20017;-66
2023/04/30 23:51:53;;;;;;;10.95;3.53;;;;;;;;;;12980717;19;20022;-67
2023/04/30 23:56:10;;;;;;;9.23;3.38;;;;;;;;;;12980076;19;20011;-66
